EGMC - Southend-On-Sea
Distance from station: E 5mi, 14km
Updated: 01/23/2018 4:50pm
Few Clouds
Few Clouds
 Wind from SSW
Wind: SSW 15 mph , 24 km/h
Temperature: 50°F , 10°C
Wind Chill: 45°F , 7°C
Dew Point: 46°F , 8°C
Humidity: 88%
Barometer: 29.91 inHg , 1013 hPa
Clouds: Few Clouds
Visibility: 6 miles , 10 km
Cloud details: Few Clouds 1900 ft
2018/01/24 00:50 EGMC 240050Z 21013KT 9999 FEW019 10/08 Q1013